Time;durP1;ratioP1;P1;durP2;ratioP2;P2;SDS_P1;SDS_P2;PMS_P1;PMS_P2;Temp;Humidity;BMP_temperature;BMP_pressure;BME280_temperature;BME280_humidity;BME280_pressure;Samples;Min_cycle;Max_cycle;Signal;HPM_P1;HPM_P2
2022/01/31 00:02:08;;;;;;;;;5.75;5.75;15.00;99.90;;;;;;5075427;28;11125;-46
2022/01/31 00:04:38;;;;;;;;;6.75;6.75;15.00;99.90;;;;;;5080535;28;11193;-48
2022/01/31 00:07:12;;;;;;;;;8.00;8.00;15.00;99.90;;;;;;5074522;28;11155;-45
2022/01/31 00:09:44;;;;;;;;;9.00;9.00;15.00;99.90;;;;;;5073560;28;10919;-47
2022/01/31 00:12:18;;;;;;;;;7.50;7.50;15.00;99.90;;;;;;5077569;28;11584;-46
2022/01/31 00:14:50;;;;;;;;;6.75;6.75;15.00;99.90;;;;;;5075393;28;10910;-45
2022/01/31 00:17:20;;;;;;;;;7.75;7.75;15.00;99.90;;;;;;5081387;28;11083;-44
2022/01/31 00:19:50;;;;;;;;;6.00;6.00;15.00;99.90;;;;;;5073241;28;10940;-44
2022/01/31 00:22:20;;;;;;;;;6.00;5.00;15.00;99.90;;;;;;5076760;28;10973;-44
2022/01/31 00:24:51;;;;;;;;;5.75;5.75;15.00;99.90;;;;;;5076456;28;10995;-44
2022/01/31 00:27:24;;;;;;;;;7.75;7.00;15.00;99.90;;;;;;5076100;28;11030;-46
2022/01/31 00:29:54;;;;;;;;;7.25;7.25;15.00;99.90;;;;;;5078570;28;11798;-44
2022/01/31 00:32:27;;;;;;;;;8.00;8.00;15.00;99.90;;;;;;5056831;28;11095;-44
2022/01/31 00:34:57;;;;;;;;;10.75;9.00;15.00;99.90;;;;;;5080798;28;12148;-45
2022/01/31 00:37:28;;;;;;;;;6.25;6.25;15.00;99.90;;;;;;5074460;28;11133;-42
2022/01/31 00:39:57;;;;;;;;;9.75;9.75;15.00;99.90;;;;;;5077821;28;11164;-42
2022/01/31 00:42:30;;;;;;;;;5.50;5.50;15.00;99.90;;;;;;5068519;28;11210;-42
2022/01/31 00:45:20;;;;;;;;;8.75;8.75;15.00;99.90;;;;;;5077282;28;11113;-47
2022/01/31 00:48:00;;;;;;;;;10.00;9.50;14.90;99.90;;;;;;5075438;28;11174;-43
2022/01/31 00:50:39;;;;;;;;;8.25;8.25;14.90;99.90;;;;;;5054749;28;11070;-44
2022/01/31 00:53:10;;;;;;;;;10.75;10.75;14.90;99.90;;;;;;5053811;28;11450;-44
2022/01/31 00:55:40;;;;;;;;;9.25;9.25;14.80;99.90;;;;;;5059953;28;11436;-44
2022/01/31 00:58:13;;;;;;;;;6.50;6.50;14.80;99.90;;;;;;5058669;28;11500;-42
2022/01/31 01:00:43;;;;;;;;;8.25;8.25;14.90;99.90;;;;;;5053357;28;11409;-43
2022/01/31 01:03:15;;;;;;;;;8.50;8.50;14.80;99.90;;;;;;5069571;28;11576;-46
2022/01/31 01:05:45;;;;;;;;;13.75;13.75;14.90;99.90;;;;;;5060614;28;11417;-43
2022/01/31 01:08:17;;;;;;;;;7.75;7.75;14.90;99.90;;;;;;5075593;28;11528;-43
2022/01/31 01:10:47;;;;;;;;;8.75;8.75;14.90;99.90;;;;;;5072701;28;11621;-44
2022/01/31 01:13:19;;;;;;;;;16.75;15.50;14.80;99.90;;;;;;5076576;28;11507;-44
2022/01/31 01:15:49;;;;;;;;;9.75;9.75;14.80;99.90;;;;;;5069776;28;11473;-46
2022/01/31 01:18:19;;;;;;;;;10.25;10.25;14.80;99.90;;;;;;5085867;28;11426;-45
2022/01/31 01:20:50;;;;;;;;;7.75;7.75;14.80;99.90;;;;;;5063490;28;11494;-46
2022/01/31 01:23:21;;;;;;;;;7.00;7.00;14.70;99.90;;;;;;5061041;28;11437;-45
2022/01/31 01:25:53;;;;;;;;;8.00;8.00;14.70;99.90;;;;;;5066863;28;11131;-46
2022/01/31 01:28:26;;;;;;;;;7.50;7.50;14.70;99.90;;;;;;5058021;28;11176;-46
2022/01/31 01:30:57;;;;;;;;;7.00;7.00;14.70;99.90;;;;;;5062193;28;11396;-46
2022/01/31 01:33:36;;;;;;;;;6.00;6.00;14.70;99.90;;;;;;5054946;28;11479;-44
2022/01/31 01:36:08;;;;;;;;;6.50;6.50;14.70;99.90;;;;;;5067748;28;11425;-43
2022/01/31 01:38:38;;;;;;;;;7.50;7.50;14.70;99.90;;;;;;5086298;28;11373;-45
2022/01/31 01:41:09;;;;;;;;;6.75;6.75;14.60;99.90;;;;;;5064234;28;11336;-43
2022/01/31 01:43:39;;;;;;;;;3.25;3.25;14.70;99.90;;;;;;5068779;28;11557;-42
2022/01/31 01:46:10;;;;;;;;;3.75;3.25;14.60;99.90;;;;;;5063682;28;11412;-46
2022/01/31 01:48:41;;;;;;;;;6.00;6.00;14.60;99.90;;;;;;5063101;28;11396;-42
2022/01/31 01:51:16;;;;;;;;;6.25;6.25;14.60;99.90;;;;;;5071415;28;11448;-42
2022/01/31 01:53:45;;;;;;;;;7.00;7.00;14.60;99.90;;;;;;5053214;28;11140;-42
2022/01/31 01:56:16;;;;;;;;;8.00;8.00;14.60;99.90;;;;;;5063061;28;11424;-42
2022/01/31 01:58:49;;;;;;;;;7.00;7.00;14.50;99.90;;;;;;5046529;28;11584;-45
2022/01/31 02:01:20;;;;;;;;;6.00;6.00;14.50;99.90;;;;;;5060122;28;11627;-43
2022/01/31 02:03:55;;;;;;;;;7.25;7.25;14.50;99.90;;;;;;5060080;28;11412;-46
2022/01/31 02:06:33;;;;;;;;;7.00;7.00;14.40;99.90;;;;;;5065981;28;11427;-43
2022/01/31 02:09:07;;;;;;;;;9.00;7.00;14.40;99.90;;;;;;5054585;28;11472;-46
2022/01/31 02:11:38;;;;;;;;;8.00;6.25;14.40;99.90;;;;;;5064019;28;11391;-45
2022/01/31 02:14:12;;;;;;;;;5.25;5.25;14.40;99.90;;;;;;5057705;28;11486;-43
2022/01/31 02:17:01;;;;;;;;;8.50;8.50;14.40;99.90;;;;;;5067250;28;11415;-46
2022/01/31 02:19:50;;;;;;;;;8.50;8.50;14.40;99.90;;;;;;5061407;28;11490;-44
2022/01/31 02:22:28;;;;;;;;;7.75;7.75;14.40;99.90;;;;;;5059524;28;11402;-44
2022/01/31 02:24:58;;;;;;;;;7.50;7.50;14.40;99.90;;;;;;5064429;28;11597;-43
2022/01/31 02:27:49;;;;;;;;;6.00;6.00;14.30;99.90;;;;;;5053288;28;12190;-46
2022/01/31 02:30:19;;;;;;;;;7.50;6.00;14.30;99.90;;;;;;5060320;28;11442;-47
2022/01/31 02:32:49;;;;;;;;;6.50;6.50;14.40;99.90;;;;;;5068313;28;12176;-45
2022/01/31 02:35:23;;;;;;;;;6.75;6.75;14.30;99.90;;;;;;5056237;28;11464;-45
2022/01/31 02:37:54;;;;;;;;;7.25;7.25;14.30;99.90;;;;;;5047423;28;11438;-45
2022/01/31 02:40:31;;;;;;;;;9.50;8.00;14.10;99.90;;;;;;5047764;28;11458;-47
2022/01/31 02:43:05;;;;;;;;;9.50;8.00;14.30;99.90;;;;;;5058120;28;11487;-44
2022/01/31 02:45:37;;;;;;;;;9.75;9.75;14.20;99.90;;;;;;5063372;28;11482;-47
2022/01/31 02:48:08;;;;;;;;;8.50;8.50;14.20;99.90;;;;;;5050688;28;11447;-45
2022/01/31 02:50:40;;;;;;;;;7.75;7.75;14.20;99.90;;;;;;5050338;28;11463;-46
2022/01/31 02:55:47;;;;;;;;;9.00;9.00;14.20;99.90;;;;;;5052806;28;11428;-44
2022/01/31 02:58:22;;;;;;;;;7.25;7.25;14.20;99.90;;;;;;5059053;28;11505;-46
2022/01/31 03:00:55;;;;;;;;;7.25;7.25;14.10;99.90;;;;;;5056667;28;11501;-47
2022/01/31 03:03:40;;;;;;;;;7.75;7.75;14.10;99.90;;;;;;5051578;28;11454;-45
2022/01/31 03:06:11;;;;;;;;;3.00;3.00;14.10;99.90;;;;;;5060359;28;11442;-48
2022/01/31 03:08:42;;;;;;;;;8.25;8.25;14.10;99.90;;;;;;5067158;28;12207;-50
2022/01/31 03:11:23;;;;;;;;;7.75;7.75;14.10;99.90;;;;;;5058016;28;11429;-49
2022/01/31 03:14:02;;;;;;;;;7.00;7.00;14.10;99.90;;;;;;5051287;28;11519;-45
2022/01/31 03:16:40;;;;;;;;;8.00;6.75;14.00;99.90;;;;;;5048485;28;11452;-42
2022/01/31 03:19:33;;;;;;;;;8.00;8.00;14.00;99.90;;;;;;5054297;28;11443;-42
2022/01/31 03:22:07;;;;;;;;;7.00;7.00;14.00;99.90;;;;;;5061320;28;11458;-45
2022/01/31 03:24:39;;;;;;;;;7.00;7.00;13.90;99.90;;;;;;5045336;28;11403;-44
2022/01/31 03:27:09;;;;;;;;;7.00;7.00;13.90;99.90;;;;;;5047799;28;11476;-44
2022/01/31 03:29:40;;;;;;;;;6.00;6.00;13.90;99.90;;;;;;5055071;28;11455;-44
2022/01/31 03:32:11;;;;;;;;;9.50;7.75;13.90;99.90;;;;;;5055335;28;11437;-45
2022/01/31 03:34:41;;;;;;;;;7.00;7.00;13.90;99.90;;;;;;5052732;28;12178;-44
2022/01/31 03:37:11;;;;;;;;;7.00;7.00;13.90;99.90;;;;;;5056145;28;11475;-45
2022/01/31 03:39:46;;;;;;;;;10.25;10.25;13.80;99.90;;;;;;5059471;28;11686;-44
2022/01/31 03:42:18;;;;;;;;;10.75;10.75;13.90;99.90;;;;;;5052641;28;11660;-46
2022/01/31 03:44:49;;;;;;;;;9.00;9.00;13.80;99.90;;;;;;5071624;28;11533;-44
2022/01/31 03:47:22;;;;;;;;;9.25;9.25;13.80;99.90;;;;;;5049444;28;11442;-43
2022/01/31 03:49:53;;;;;;;;;10.50;9.50;13.80;99.90;;;;;;5055793;28;11542;-44
2022/01/31 03:52:26;;;;;;;;;11.00;11.00;13.80;99.90;;;;;;5063228;28;11487;-46
2022/01/31 03:54:59;;;;;;;;;8.50;8.50;13.80;99.90;;;;;;5047583;28;11713;-42
2022/01/31 03:57:31;;;;;;;;;8.75;8.75;13.70;99.90;;;;;;5054287;28;11490;-44
2022/01/31 04:00:22;;;;;;;;;11.00;11.00;13.70;99.90;;;;;;5073264;27;11529;-45
2022/01/31 04:02:53;;;;;;;;;14.75;14.75;13.70;99.90;;;;;;5058480;28;11753;-44
2022/01/31 04:05:24;;;;;;;;;17.00;17.00;13.70;99.90;;;;;;5057443;28;11678;-42
2022/01/31 04:07:54;;;;;;;;;18.25;17.00;13.60;99.90;;;;;;5058877;28;11523;-46
2022/01/31 04:10:28;;;;;;;;;17.50;16.00;13.70;99.90;;;;;;5054146;28;11567;-42
2022/01/31 04:12:59;;;;;;;;;17.75;16.50;13.60;99.90;;;;;;5054962;28;12309;-43
2022/01/31 04:15:30;;;;;;;;;14.00;14.00;13.60;99.90;;;;;;5054484;28;11531;-43
2022/01/31 04:18:01;;;;;;;;;12.75;12.75;13.60;99.90;;;;;;5052911;28;12172;-46
2022/01/31 04:20:33;;;;;;;;;10.50;10.50;13.60;99.90;;;;;;5065682;28;11681;-46
2022/01/31 04:23:11;;;;;;;;;15.75;12.75;13.50;99.90;;;;;;5049464;28;11538;-47
2022/01/31 04:25:44;;;;;;;;;11.50;11.50;13.50;99.90;;;;;;5058391;28;11543;-46
2022/01/31 04:28:20;;;;;;;;;15.25;15.25;13.50;99.90;;;;;;5054606;28;12249;-45
2022/01/31 04:31:26;;;;;;;;;12.50;12.50;13.50;99.90;;;;;;5059820;28;11530;-46
2022/01/31 04:33:45;;;;;;;;;10.00;10.00;13.40;99.90;;;;;;5043451;28;11674;-43
2022/01/31 04:36:16;;;;;;;;;12.00;12.00;13.40;99.90;;;;;;5056795;28;11522;-44
2022/01/31 04:38:47;;;;;;;;;11.00;11.00;13.40;99.90;;;;;;5055821;28;11552;-44
2022/01/31 04:41:20;;;;;;;;;10.00;10.00;13.40;99.90;;;;;;5065907;28;11736;-47
2022/01/31 04:43:53;;;;;;;;;11.00;11.00;13.40;99.90;;;;;;5061107;28;11505;-45
2022/01/31 04:46:23;;;;;;;;;11.50;11.50;13.40;99.90;;;;;;5055736;28;11500;-45
2022/01/31 04:48:53;;;;;;;;;9.50;9.50;13.30;99.90;;;;;;5046603;28;11575;-43
2022/01/31 04:51:23;;;;;;;;;9.00;9.00;13.20;99.90;;;;;;5053844;28;11535;-44
2022/01/31 04:53:53;;;;;;;;;10.75;10.75;13.20;99.90;;;;;;5062614;28;11411;-45
2022/01/31 04:56:25;;;;;;;;;10.00;10.00;13.20;99.90;;;;;;5080317;28;11562;-45
2022/01/31 04:58:56;;;;;;;;;10.25;10.25;13.20;99.90;;;;;;5069770;28;11510;-45
2022/01/31 05:01:27;;;;;;;;;10.75;10.00;13.20;99.90;;;;;;5079080;28;11490;-44
2022/01/31 05:03:58;;;;;;;;;12.50;10.75;13.20;99.90;;;;;;5068097;28;11711;-45
2022/01/31 05:06:34;;;;;;;;;8.00;8.00;13.10;99.90;;;;;;5071736;28;11504;-44
2022/01/31 05:09:07;;;;;;;;;10.00;10.00;13.10;99.90;;;;;;5075067;28;11605;-43
2022/01/31 05:11:39;;;;;;;;;11.00;11.00;13.10;99.90;;;;;;5081966;28;11615;-46
2022/01/31 05:14:11;;;;;;;;;14.00;14.00;13.10;99.90;;;;;;5069005;28;11471;-44
2022/01/31 05:16:41;;;;;;;;;8.00;8.00;13.00;99.90;;;;;;5073583;28;11518;-43
2022/01/31 05:19:12;;;;;;;;;10.00;10.00;13.00;99.90;;;;;;5060979;28;11498;-43
2022/01/31 05:21:42;;;;;;;;;11.25;10.50;13.00;99.90;;;;;;5047899;28;11531;-42
2022/01/31 05:24:12;;;;;;;;;14.00;14.00;13.00;99.90;;;;;;5071050;28;11595;-48
2022/01/31 05:26:50;;;;;;;;;12.75;12.75;13.00;99.90;;;;;;5075882;28;11498;-47
2022/01/31 05:29:22;;;;;;;;;12.50;12.50;13.00;99.90;;;;;;5075153;28;11607;-44
2022/01/31 05:31:55;;;;;;;;;9.00;8.00;12.90;99.90;;;;;;5080855;28;11507;-43
2022/01/31 05:34:26;;;;;;;;;14.00;13.75;12.90;99.90;;;;;;5055060;28;11432;-46
2022/01/31 05:36:57;;;;;;;;;9.75;9.75;12.90;99.90;;;;;;5080945;28;11508;-45
2022/01/31 05:39:27;;;;;;;;;11.25;11.25;12.90;99.90;;;;;;5087746;28;11468;-48
2022/01/31 05:41:59;;;;;;;;;13.25;13.25;12.90;99.90;;;;;;5056914;28;11636;-46
2022/01/31 05:44:29;;;;;;;;;10.00;10.00;12.90;99.90;;;;;;5087014;28;11477;-44
2022/01/31 05:47:01;;;;;;;;;12.25;12.25;12.80;99.90;;;;;;5074146;28;11505;-47
2022/01/31 05:49:32;;;;;;;;;11.50;11.50;12.80;99.90;;;;;;5094021;28;11502;-44
2022/01/31 05:52:05;;;;;;;;;17.00;17.00;12.80;99.90;;;;;;5076942;28;11511;-44
2022/01/31 05:54:40;;;;;;;;;20.00;20.00;12.80;99.90;;;;;;5085851;28;12216;-44
2022/01/31 05:57:11;;;;;;;;;15.00;15.00;12.70;99.90;;;;;;5080772;28;11521;-45
2022/01/31 05:59:42;;;;;;;;;15.25;15.25;12.70;99.90;;;;;;5085527;28;11490;-47
2022/01/31 06:02:13;;;;;;;;;9.75;9.75;12.70;99.90;;;;;;5087260;28;11986;-44
2022/01/31 06:04:44;;;;;;;;;2.25;2.00;12.60;99.90;;;;;;5073645;28;11501;-45
2022/01/31 06:07:15;;;;;;;;;15.75;15.75;12.60;99.90;;;;;;5076779;28;11511;-45
2022/01/31 06:09:47;;;;;;;;;15.25;14.25;12.60;99.90;;;;;;5075603;28;11542;-45
2022/01/31 06:12:17;;;;;;;;;13.00;12.75;12.60;99.90;;;;;;5078991;28;11492;-47
2022/01/31 06:14:50;;;;;;;;;15.00;15.00;12.60;99.90;;;;;;5071236;28;11495;-46
2022/01/31 06:17:21;;;;;;;;;14.75;14.75;12.60;99.90;;;;;;5078733;28;11540;-44
2022/01/31 06:19:52;;;;;;;;;15.75;15.75;12.60;99.90;;;;;;5063388;28;11521;-46
2022/01/31 06:22:24;;;;;;;;;16.00;16.00;12.60;99.90;;;;;;5071891;28;12227;-44
2022/01/31 06:24:54;;;;;;;;;12.25;12.25;12.50;99.90;;;;;;5069695;28;11563;-46
2022/01/31 06:27:33;;;;;;;;;13.75;13.75;12.50;99.90;;;;;;5063754;28;12150;-44
2022/01/31 06:30:05;;;;;;;;;19.00;17.50;12.50;99.90;;;;;;5052261;28;11918;-47
2022/01/31 06:32:36;;;;;;;;;15.50;15.50;12.50;99.90;;;;;;5071536;28;11539;-44
2022/01/31 06:35:07;;;;;;;;;15.50;15.50;12.50;99.90;;;;;;5068081;28;11516;-44
2022/01/31 06:37:37;;;;;;;;;12.75;12.75;12.40;99.90;;;;;;5072771;28;11484;-44
2022/01/31 06:40:08;;;;;;;;;17.25;16.00;12.30;99.90;;;;;;5055287;28;11506;-44
2022/01/31 06:42:38;;;;;;;;;16.75;16.00;12.30;99.90;;;;;;5069773;28;11568;-45
2022/01/31 06:45:09;;;;;;;;;14.75;14.75;12.30;99.90;;;;;;5074398;28;11555;-44
2022/01/31 06:47:40;;;;;;;;;13.50;13.50;12.30;99.90;;;;;;5077014;28;11534;-43
2022/01/31 06:50:11;;;;;;;;;14.25;14.25;12.20;99.90;;;;;;5076361;28;11969;-44
2022/01/31 06:52:42;;;;;;;;;15.00;15.00;12.20;99.90;;;;;;5070535;28;11653;-44
2022/01/31 06:55:19;;;;;;;;;15.00;14.00;12.20;99.90;;;;;;5066365;28;11497;-46
2022/01/31 06:57:52;;;;;;;;;12.50;12.50;12.20;99.90;;;;;;5082562;28;11499;-46
2022/01/31 07:00:23;;;;;;;;;12.50;12.50;12.20;99.90;;;;;;5075285;28;11501;-44
2022/01/31 07:02:56;;;;;;;;;14.25;14.00;12.20;99.90;;;;;;5073961;28;11549;-43
2022/01/31 07:05:27;;;;;;;;;16.00;16.00;12.10;99.90;;;;;;5075161;28;11698;-44
2022/01/31 07:07:57;;;;;;;;;17.00;17.00;12.10;99.90;;;;;;5055868;28;11613;-44
2022/01/31 07:10:28;;;;;;;;;15.50;15.50;12.10;99.90;;;;;;5054111;28;11551;-44
2022/01/31 07:13:03;;;;;;;;;20.50;20.50;12.00;99.90;;;;;;5058859;28;11507;-43
2022/01/31 07:15:33;;;;;;;;;22.75;22.75;12.00;99.90;;;;;;5077840;28;11505;-43
2022/01/31 07:18:04;;;;;;;;;25.00;25.00;12.00;99.90;;;;;;5072807;28;12303;-44
2022/01/31 07:20:41;;;;;;;;;19.50;19.50;11.90;99.90;;;;;;5076470;28;11550;-44
2022/01/31 07:23:18;;;;;;;;;17.25;17.25;11.90;99.90;;;;;;5060646;28;11972;-43
2022/01/31 07:25:48;;;;;;;;;19.75;19.75;11.90;99.90;;;;;;5082556;28;11483;-44
2022/01/31 07:28:19;;;;;;;;;25.75;25.75;11.90;99.90;;;;;;5072391;28;11535;-42
2022/01/31 07:30:51;;;;;;;;;26.50;25.75;11.80;99.90;;;;;;5076931;28;11546;-43
2022/01/31 07:33:22;;;;;;;;;24.75;24.75;11.80;99.90;;;;;;5072113;28;12382;-44
2022/01/31 07:35:52;;;;;;;;;24.00;24.00;11.70;99.90;;;;;;5069171;28;11651;-45
2022/01/31 07:38:23;;;;;;;;;24.75;24.75;11.70;99.90;;;;;;5074203;28;11698;-44
2022/01/31 07:40:57;;;;;;;;;25.00;25.00;11.70;99.90;;;;;;5070017;28;11536;-46
2022/01/31 07:43:30;;;;;;;;;26.00;26.00;11.60;99.90;;;;;;5077839;28;11537;-48
2022/01/31 07:46:00;;;;;;;;;27.75;27.00;11.60;99.90;;;;;;5073201;28;11500;-46
2022/01/31 07:48:32;;;;;;;;;25.33;25.33;11.60;99.90;;;;;;5072417;28;11689;-44
2022/01/31 07:51:02;;;;;;;;;24.25;24.25;11.60;99.90;;;;;;5076146;28;11490;-45
2022/01/31 07:53:33;;;;;;;;;19.33;19.33;11.60;99.90;;;;;;5078979;28;11711;-46
2022/01/31 07:56:08;;;;;;;;;17.00;17.00;11.60;99.90;;;;;;5078159;28;11713;-47
2022/01/31 07:58:39;;;;;;;;;17.00;16.50;11.60;99.90;;;;;;5075053;28;11511;-44
2022/01/31 08:01:09;;;;;;;;;19.50;19.00;11.60;99.90;;;;;;5085733;28;11675;-44
2022/01/31 08:03:41;;;;;;;;;21.25;21.25;11.60;99.90;;;;;;5075624;28;12367;-44
2022/01/31 08:06:12;;;;;;;;;20.00;20.00;11.50;99.90;;;;;;5069157;28;11702;-45
2022/01/31 08:08:43;;;;;;;;;24.75;24.75;11.50;99.90;;;;;;5078228;28;11500;-46
2022/01/31 08:11:14;;;;;;;;;17.00;17.00;11.50;99.90;;;;;;5082583;28;11752;-45
2022/01/31 08:13:44;;;;;;;;;14.25;14.25;11.50;99.90;;;;;;5071703;28;11567;-46
2022/01/31 08:16:15;;;;;;;;;16.75;16.75;11.50;99.90;;;;;;5082465;28;11538;-48
2022/01/31 08:18:48;;;;;;;;;18.50;15.75;11.50;99.90;;;;;;5072346;28;11553;-44
2022/01/31 08:21:21;;;;;;;;;14.25;14.25;11.40;99.90;;;;;;5073106;28;11521;-43
2022/01/31 08:23:54;;;;;;;;;14.00;14.00;11.40;99.90;;;;;;5073373;28;11512;-44
2022/01/31 08:26:25;;;;;;;;;16.50;16.50;11.40;99.90;;;;;;5056450;28;11526;-46
2022/01/31 08:29:04;;;;;;;;;13.00;13.00;11.40;99.90;;;;;;5068317;28;12267;-45
2022/01/31 08:31:57;;;;;;;;;16.00;16.00;11.40;99.90;;;;;;5072284;28;11541;-46
2022/01/31 08:37:15;;;;;;;;;13.75;13.75;11.40;99.90;;;;;;5068123;28;11623;-45
2022/01/31 08:39:45;;;;;;;;;13.25;13.25;11.30;99.90;;;;;;5066244;28;11552;-46
2022/01/31 08:42:16;;;;;;;;;15.50;15.50;11.20;99.90;;;;;;5076221;28;12216;-44
2022/01/31 08:44:50;;;;;;;;;14.00;14.00;11.10;99.90;;;;;;5066388;28;11506;-44
2022/01/31 08:47:20;;;;;;;;;15.00;15.00;11.10;99.90;;;;;;5044272;28;11508;-44
2022/01/31 08:49:51;;;;;;;;;15.00;15.00;11.20;99.90;;;;;;5068935;28;11591;-43
2022/01/31 08:52:21;;;;;;;;;15.75;15.75;11.10;99.90;;;;;;5064526;28;11826;-46
2022/01/31 08:54:52;;;;;;;;;11.75;11.75;11.10;99.90;;;;;;5062062;28;11523;-47
2022/01/31 08:57:24;;;;;;;;;12.25;12.25;11.10;99.90;;;;;;5073348;28;11668;-45
2022/01/31 08:59:56;;;;;;;;;14.50;14.50;11.00;99.90;;;;;;5069426;28;11498;-45
2022/01/31 09:02:39;;;;;;;;;19.75;17.50;11.00;99.90;;;;;;5075132;28;11500;-45
2022/01/31 09:05:11;;;;;;;;;20.50;18.75;11.00;99.90;;;;;;5072526;28;11525;-44
2022/01/31 09:07:41;;;;;;;;;16.50;16.50;10.90;99.90;;;;;;5075912;28;11516;-46
2022/01/31 09:10:11;;;;;;;;;13.75;13.75;10.90;99.90;;;;;;5070101;28;11938;-44
2022/01/31 09:12:42;;;;;;;;;14.50;14.50;10.90;99.90;;;;;;5073344;28;11552;-43
2022/01/31 09:15:14;;;;;;;;;12.50;12.50;10.90;99.90;;;;;;5073013;28;11529;-47
2022/01/31 09:17:44;;;;;;;;;15.00;13.25;10.90;99.90;;;;;;5077976;28;12215;-46
2022/01/31 09:20:15;;;;;;;;;12.25;12.25;10.90;99.90;;;;;;5073926;28;11681;-44
2022/01/31 09:22:46;;;;;;;;;13.50;13.50;10.80;99.90;;;;;;5073695;28;11514;-44
2022/01/31 09:25:18;;;;;;;;;15.25;14.25;10.80;99.90;;;;;;5071880;28;11526;-44
2022/01/31 09:27:48;;;;;;;;;13.25;12.25;10.80;99.90;;;;;;5069656;28;11581;-46
2022/01/31 09:30:22;;;;;;;;;7.00;7.00;10.80;99.90;;;;;;5074033;28;11504;-43
2022/01/31 09:32:52;;;;;;;;;13.25;13.25;10.80;99.90;;;;;;5073819;28;11480;-45
2022/01/31 09:35:25;;;;;;;;;14.50;14.50;10.80;99.90;;;;;;5075992;28;12234;-46
2022/01/31 09:37:55;;;;;;;;;14.25;14.00;10.80;99.90;;;;;;5071211;28;11505;-46
2022/01/31 09:40:26;;;;;;;;;15.00;14.00;10.70;99.90;;;;;;5056359;28;11931;-45
2022/01/31 09:45:58;;;;;;;;;13.75;13.75;10.80;99.90;;;;;;5074610;28;11507;-52
2022/01/31 09:48:33;;;;;;;;;13.00;13.00;10.80;99.90;;;;;;5073263;28;12242;-50
2022/01/31 09:51:17;;;;;;;;;15.00;15.00;10.80;99.90;;;;;;5072093;28;11653;-50
2022/01/31 09:53:54;;;;;;;;;12.75;12.75;10.70;99.90;;;;;;5076756;28;11546;-47
2022/01/31 09:56:33;;;;;;;;;13.00;13.00;10.80;99.90;;;;;;5068951;28;11524;-44
2022/01/31 09:59:04;;;;;;;;;13.00;13.00;10.80;99.90;;;;;;5073519;28;11540;-44
2022/01/31 10:01:42;;;;;;;;;12.25;12.25;10.80;99.90;;;;;;5057477;28;11569;-44
2022/01/31 10:04:28;;;;;;;;;20.75;19.25;10.80;99.90;;;;;;5068544;28;11629;-54
2022/01/31 10:07:01;;;;;;;;;10.00;8.75;10.70;99.90;;;;;;5073365;28;11660;-43
2022/01/31 10:09:33;;;;;;;;;14.00;14.00;10.70;99.90;;;;;;5071751;28;11492;-43
2022/01/31 10:12:08;;;;;;;;;12.50;12.50;10.70;99.90;;;;;;5073223;28;12303;-44
2022/01/31 10:17:40;;;;;;;;;14.00;12.50;10.70;99.90;;;;;;5071209;28;12839;-42
2022/01/31 10:20:31;;;;;;;;;14.50;14.50;10.70;99.90;;;;;;5069915;28;11553;-43
2022/01/31 10:23:08;;;;;;;;;12.75;12.75;10.70;99.90;;;;;;5067788;28;11531;-42
2022/01/31 10:25:39;;;;;;;;;13.25;13.25;10.70;99.90;;;;;;5072508;28;11517;-46
2022/01/31 10:28:18;;;;;;;;;11.25;11.25;10.60;99.90;;;;;;5084590;28;11555;-49
2022/01/31 10:30:52;;;;;;;;;13.25;13.25;10.60;99.90;;;;;;5072398;28;11538;-44
2022/01/31 10:33:27;;;;;;;;;14.00;12.75;10.60;99.90;;;;;;5075535;28;11544;-43
2022/01/31 10:35:58;;;;;;;;;11.25;11.25;10.60;99.90;;;;;;5081822;28;13109;-44
2022/01/31 10:38:36;;;;;;;;;13.00;13.00;10.60;99.90;;;;;;5072581;28;11521;-47
2022/01/31 10:50:50;;;;;;;;;12.50;12.50;10.50;99.90;;;;;;5009766;28;12051;-43
2022/01/31 10:53:21;;;;;;;;;13.75;13.75;10.50;99.90;;;;;;5063316;28;11507;-42
2022/01/31 10:55:57;;;;;;;;;13.75;13.75;10.40;99.90;;;;;;5074243;28;12342;-43
2022/01/31 10:58:27;;;;;;;;;14.75;14.75;10.40;99.90;;;;;;5070280;28;11567;-43
2022/01/31 11:01:16;;;;;;;;;12.50;12.00;10.40;99.90;;;;;;5072821;28;11517;-43
2022/01/31 11:03:47;;;;;;;;;15.75;14.00;10.50;99.90;;;;;;5068080;28;11571;-46
2022/01/31 11:06:17;;;;;;;;;14.75;13.75;10.40;99.90;;;;;;5050440;28;11509;-43
2022/01/31 11:08:49;;;;;;;;;13.00;13.00;10.40;99.90;;;;;;5070420;28;11554;-44
2022/01/31 11:11:20;;;;;;;;;13.25;13.25;10.40;99.90;;;;;;5077300;28;11510;-44
2022/01/31 11:13:52;;;;;;;;;12.00;12.00;10.40;99.90;;;;;;5076152;28;11542;-47
2022/01/31 11:16:46;;;;;;;;;13.00;12.75;10.40;99.90;;;;;;5077196;28;11532;-45
2022/01/31 11:19:23;;;;;;;;;11.00;11.00;10.40;99.90;;;;;;5069118;28;11542;-46
2022/01/31 11:21:59;;;;;;;;;9.00;9.00;10.40;99.90;;;;;;5074748;28;11688;-44
2022/01/31 11:24:35;;;;;;;;;13.25;13.25;10.30;99.90;;;;;;5067947;28;11558;-47
2022/01/31 11:27:15;;;;;;;;;11.50;11.50;10.30;99.90;;;;;;5073703;28;11490;-46
2022/01/31 11:29:53;;;;;;;;;11.25;11.25;10.30;99.90;;;;;;5074902;28;11521;-46
2022/01/31 11:32:26;;;;;;;;;13.50;13.50;10.30;99.90;;;;;;5073728;28;11660;-45
2022/01/31 11:34:56;;;;;;;;;12.00;11.00;10.20;99.90;;;;;;5067987;28;11559;-43
2022/01/31 11:37:26;;;;;;;;;13.00;13.00;10.20;99.90;;;;;;5077216;28;11495;-44
2022/01/31 11:40:04;;;;;;;;;14.00;12.75;10.20;99.90;;;;;;5070915;28;11529;-46
2022/01/31 11:42:35;;;;;;;;;12.50;12.25;10.20;99.90;;;;;;5077236;28;11496;-47
2022/01/31 11:45:09;;;;;;;;;12.25;12.25;10.20;99.90;;;;;;5079428;28;12253;-43
2022/01/31 11:47:42;;;;;;;;;12.75;12.75;10.20;99.90;;;;;;5074896;28;11882;-43
2022/01/31 11:50:18;;;;;;;;;10.50;10.50;10.20;99.90;;;;;;5072917;28;11475;-45
2022/01/31 11:53:01;;;;;;;;;14.00;14.00;10.20;99.90;;;;;;5070598;28;11539;-45
2022/01/31 11:55:35;;;;;;;;;11.25;11.25;10.20;99.90;;;;;;5073775;28;11479;-43
2022/01/31 11:58:08;;;;;;;;;9.50;9.50;10.20;99.90;;;;;;5070174;28;11548;-47
2022/01/31 12:00:40;;;;;;;;;12.50;12.50;10.20;99.90;;;;;;5072393;28;12302;-46
2022/01/31 12:03:16;;;;;;;;;13.00;13.00;10.20;99.90;;;;;;5069836;28;11538;-46
2022/01/31 12:05:47;;;;;;;;;11.25;11.25;10.20;99.90;;;;;;5069007;28;11532;-45
2022/01/31 12:08:22;;;;;;;;;11.75;11.75;10.10;99.90;;;;;;5066995;28;11544;-46
2022/01/31 12:11:12;;;;;;;;;10.25;10.25;10.10;99.90;;;;;;5069239;28;12271;-43
2022/01/31 12:13:51;;;;;;;;;12.00;12.00;10.10;99.90;;;;;;5069980;28;11465;-46
2022/01/31 12:16:48;;;;;;;;;8.25;8.25;10.10;99.90;;;;;;5074453;28;12659;-47
2022/01/31 12:19:44;;;;;;;;;12.75;12.75;10.10;99.90;;;;;;5072776;28;11508;-44
2022/01/31 12:22:45;;;;;;;;;13.25;13.25;10.10;99.90;;;;;;5062156;28;11505;-45
2022/01/31 12:25:24;;;;;;;;;16.50;16.50;10.10;99.90;;;;;;5062263;28;11498;-45
2022/01/31 12:27:56;;;;;;;;;10.50;10.50;10.10;99.90;;;;;;5067265;28;11522;-47
2022/01/31 12:30:35;;;;;;;;;13.75;13.75;10.00;99.90;;;;;;5068932;28;11914;-43
2022/01/31 12:33:41;;;;;;;;;14.00;14.00;10.00;99.90;;;;;;5070171;28;12261;-42
2022/01/31 12:36:12;;;;;;;;;16.00;14.25;9.90;99.90;;;;;;5078251;28;11533;-43
2022/01/31 12:38:44;;;;;;;;;11.00;10.75;9.90;99.90;;;;;;5065401;28;11510;-45
2022/01/31 12:41:34;;;;;;;;;12.75;12.75;9.90;99.90;;;;;;5075847;28;11542;-45
2022/01/31 12:44:26;;;;;;;;;15.50;15.50;9.80;99.90;;;;;;5064750;28;11541;-43
2022/01/31 12:47:20;;;;;;;;;10.75;10.75;9.90;99.90;;;;;;5064341;28;11487;-43
2022/01/31 12:50:19;;;;;;;;;13.00;13.00;9.90;99.90;;;;;;5072103;28;12274;-43
2022/01/31 12:52:51;;;;;;;;;15.25;15.25;9.90;99.90;;;;;;5074385;28;11527;-45
2022/01/31 12:55:27;;;;;;;;;10.00;10.00;9.90;99.90;;;;;;5059476;28;11539;-43
2022/01/31 12:57:58;;;;;;;;;11.50;11.50;9.90;99.90;;;;;;5078112;28;11452;-43
2022/01/31 13:00:41;;;;;;;;;11.00;11.00;9.90;99.90;;;;;;5076612;28;11656;-48
2022/01/31 13:03:36;;;;;;;;;13.75;13.75;9.90;99.90;;;;;;5072699;28;11526;-44
2022/01/31 13:06:33;;;;;;;;;10.25;10.25;9.80;99.90;;;;;;5078023;28;11534;-44
2022/01/31 13:09:16;;;;;;;;;10.75;10.75;9.80;99.90;;;;;;5075786;28;11503;-45
2022/01/31 13:11:56;;;;;;;;;11.50;11.50;9.80;99.90;;;;;;5075438;28;11540;-44
2022/01/31 13:14:31;;;;;;;;;6.50;6.50;9.80;99.90;;;;;;5069170;28;11494;-44
2022/01/31 13:17:16;;;;;;;;;7.00;5.25;9.80;99.90;;;;;;5072878;28;11620;-44
2022/01/31 13:19:52;;;;;;;;;8.50;8.50;9.80;99.90;;;;;;5072527;28;11480;-43
2022/01/31 13:25:08;;;;;;;;;14.50;11.00;9.80;99.90;;;;;;5075506;28;11465;-44
2022/01/31 13:27:59;;;;;;;;;9.75;9.75;9.80;99.90;;;;;;5072615;28;11509;-44
2022/01/31 13:30:32;;;;;;;;;9.00;9.00;9.70;99.90;;;;;;5073856;28;11461;-45
2022/01/31 13:33:06;;;;;;;;;11.00;11.00;9.70;99.90;;;;;;5071880;28;11541;-47